Latest Weather Observations for King Island Airport

IDT60801

Issued at 9:11 pm EST Sunday 26 May 2024 (issued every 10 minutes, with the page automatically refreshed every 10 minutes)

About weather observations | Map of weather stations | Latest weather observations for TAS | Other Formats
Station Details ID: 098017 Name: KING ISLAND AIRPORT Lat: -39.88 Lon: 143.89 Height: 35.42 m
Data from the previous 72 hours. | See also: Recent months at King Island Airport
Date/Time
EST
Temp
°C
App
Temp
°C
Dew
Point
°C
Rel
Hum
%
Delta-T
°C
Wind Press
QNH
hPa
Press
MSL
hPa
Rain since
9am
mm
Dir  Spd
km/h
Gust
km/h
Spd
kts
Gust
kts
26/09:00pm 11.9 8.1 9.1 83 1.4 NW 19 24 10 13 1023.8 1023.9 0.0
26/08:30pm 11.7 7.8 8.7 82 1.5 NW 19 22 10 12 1023.8 1023.9 0.0
26/08:00pm 11.0 8.4 9.4 90 0.8 NNW 13 22 7 12 1023.6 1023.7 0.0
26/07:30pm 8.3 5.0 6.3 87 0.9 NNW 13 20 7 11 1023.6 1023.7 0.0
26/07:00pm 9.2 7.6 8.0 92 0.6 NNE 6 9 3 5 1023.7 1023.8 0.0
26/06:30pm 9.5 7.9 7.9 90 0.8 NNE 6 7 3 4 1023.6 1023.7 0.0
26/06:00pm 10.1 9.7 8.4 89 0.8 CALM 0 6 0 3 1023.5 1023.6 0.0
26/05:30pm 10.9 8.5 8.8 87 1.0 NNW 11 13 6 7 1023.4 1023.5 0.0
26/05:00pm 12.0 9.2 8.5 79 1.7 NW 13 15 7 8 1023.6 1023.7 0.0
26/04:30pm 13.6 10.7 9.8 78 2.0 NW 15 20 8 11 1023.6 1023.7 0.0
26/04:00pm 14.1 10.3 9.9 76 2.2 NW 20 26 11 14 1023.6 1023.7 0.0
26/03:30pm 14.6 10.9 10.0 74 2.4 WNW 20 24 11 13 1023.7 1023.8 0.0
26/03:00pm 14.4 9.7 9.4 72 2.6 WNW 24 32 13 17 1023.8 1023.9 0.0
26/02:30pm 15.2 10.6 9.8 70 2.8 WNW 24 30 13 16 1023.7 1023.8 0.0
26/02:00pm 15.0 11.3 10.2 73 2.5 WNW 20 26 11 14 1023.8 1023.9 0.0
26/01:30pm 15.4 12.0 10.4 72 2.6 WNW 19 24 10 13 1024.0 1024.1 0.0
26/01:00pm 15.4 12.6 10.0 70 2.8 WNW 15 20 8 11 1024.0 1024.1 0.0
26/12:30pm 15.0 11.7 9.6 70 2.8 WNW 17 24 9 13 1024.5 1024.6 0.0
26/12:00pm 14.1 11.4 10.3 78 2.0 W 15 20 8 11 1025.0 1025.0 0.0
26/11:58am 14.3 11.8 10.9 80 1.8 W 15 20 8 11 1025.0 1025.0 0.0
26/11:30am 14.6 12.3 11.7 83 1.6 W 15 22 8 12 1025.3 1025.3 0.0
26/11:24am 14.6 11.9 11.6 82 1.6 W 17 22 9 12 1025.3 1025.3 0.0
26/11:00am 14.8 13.3 11.9 83 1.6 WSW 11 17 6 9 1025.4 1025.4 0.0
26/10:30am 14.8 14.1 13.2 90 0.9 WNW 9 15 5 8 1025.3 1025.3 0.0
26/10:00am 14.2 13.9 13.4 95 0.4 NW 7 9 4 5 1025.7 1025.7 0.0
26/09:30am 13.3 14.1 12.7 96 0.3 CALM 0 0 0 0 1025.7 1025.7 0.0
26/09:00am 13.0 13.8 12.4 96 0.3 CALM 0 0 0 0 1025.6 1025.6 0.2
26/08:30am 12.3 12.9 11.8 97 0.3 CALM 0 0 0 0 1025.6 1025.6 0.2
26/08:00am 11.8 11.0 11.2 96 0.3 ENE 6 7 3 4 1025.4 1025.4 0.2
26/07:30am 11.2 10.1 10.7 97 0.3 E 7 9 4 5 1025.3 1025.3 0.2
26/07:00am 11.3 10.2 10.8 97 0.3 ESE 7 9 4 5 1025.2 1025.2 0.2
26/06:30am 11.4 10.0 10.9 97 0.3 ESE 9 13 5 7 1025.2 1025.2 0.2
26/06:00am 11.0 9.5 10.5 97 0.3 ESE 9 13 5 7 1025.0 1025.0 0.2
26/05:30am 10.4 8.0 9.9 97 0.3 ESE 13 13 7 7 1025.0 1025.0 0.2
26/05:26am 10.1 7.6 9.6 97 0.3 ESE 13 13 7 7 1024.9 1024.9 0.2
26/05:07am 8.9 6.8 8.1 95 0.4 ESE 9 11 5 6 1024.9 1024.9 0.2
26/05:00am 10.3 8.6 9.7 96 0.3 SE 9 11 5 6 1025.0 1025.0 0.2
26/04:54am 10.5 8.8 10.0 97 0.3 SE 9 9 5 5 1025.0 1025.0 0.2
26/04:40am 10.3 9.0 9.8 97 0.3 E 7 7 4 4 1025.1 1025.1 0.2
26/04:30am 8.8 7.2 8.2 96 0.3 E 6 7 3 4 1025.1 1025.1 0.2
26/04:21am 8.3 6.6 7.4 94 0.4 E 6 7 3 4 1025.1 1025.1 0.2
26/04:18am 9.0 7.2 8.1 94 0.4 ESE 7 7 4 4 1025.1 1025.1 0.2
26/04:00am 10.2 9.0 9.6 96 0.3 ESE 6 7 3 4 1025.3 1025.3 0.2
26/03:30am 9.9 7.7 9.3 96 0.3 ESE 11 13 6 7 1025.5 1025.5 0.0
26/03:23am 10.3 8.6 9.7 96 0.3 ESE 9 11 5 6 1025.5 1025.5 0.0
26/03:00am 10.6 9.3 9.8 95 0.4 ESE 7 9 4 5 1025.9 1025.9 0.0
26/02:59am 10.6 9.5 10.0 96 0.3 ESE 6 9 3 5 1025.9 1025.9 0.0
26/02:53am 10.6 9.5 9.8 95 0.4 ESE 6 7 3 4 1026.0 1026.0 0.0
26/02:33am 10.7 9.6 9.9 95 0.4 E 6 7 3 4 1026.1 1026.1 0.0
26/02:30am 10.6 9.3 9.8 95 0.4 E 7 7 4 4 1026.1 1026.1 0.0
26/02:00am 10.7 9.0 9.9 95 0.4 E 9 9 5 5 1026.2 1026.2 0.0
26/01:30am 10.3 9.1 9.4 94 0.4 ESE 6 13 3 7 1026.4 1026.4 0.0
26/01:00am 10.1 8.6 9.2 94 0.4 E 7 9 4 5 1026.6 1026.6 0.0
26/12:30am 10.2 8.7 9.0 92 0.6 E 7 9 4 5 1026.8 1026.8 0.0
26/12:00am 10.7 8.9 9.5 92 0.6 ESE 9 9 5 5 1027.0 1027.0 0.0
 
Date/Time
EST
Temp
°C
App
Temp
°C
Dew
Point
°C
Rel
Hum
%
Delta-T
°C
Wind Press
QNH
hPa
Press
MSL
hPa
Rain since
9am
mm
Dir  Spd
km/h
Gust
km/h
Spd
kts
Gust
kts
25/11:30pm 10.7 8.5 9.3 91 0.7 E 11 13 6 7 1027.1 1027.1 0.0
25/11:00pm 11.0 8.9 9.6 91 0.7 ESE 11 13 6 7 1027.2 1027.2 0.0
25/10:30pm 10.5 8.2 9.1 91 0.7 ESE 11 13 6 7 1027.4 1027.4 0.0
25/10:00pm 10.8 8.6 9.2 90 0.8 E 11 13 6 7 1027.5 1027.5 0.0
25/09:30pm 11.7 8.8 9.8 88 1.0 E 15 19 8 10 1027.5 1027.5 0.0
25/09:00pm 12.4 9.5 9.8 84 1.3 E 15 20 8 11 1027.4 1027.4 0.0
25/08:30pm 12.9 10.1 10.1 83 1.4 E 15 20 8 11 1027.4 1027.4 0.0
25/08:00pm 12.9 9.7 10.1 83 1.4 E 17 20 9 11 1027.3 1027.3 0.0
25/07:30pm 12.9 9.7 10.1 83 1.4 ENE 17 20 9 11 1027.2 1027.2 0.0
25/07:00pm 12.8 9.2 10.0 83 1.4 E 19 24 10 13 1027.2 1027.2 0.0
25/06:30pm 12.8 9.2 10.0 83 1.4 E 19 24 10 13 1026.9 1026.9 0.0
25/06:00pm 12.9 9.7 10.1 83 1.4 E 17 20 9 11 1027.0 1027.0 0.0
25/05:30pm 13.5 9.8 10.3 81 1.7 E 20 24 11 13 1027.0 1027.0 0.0
25/05:00pm 13.6 10.2 10.6 82 1.6 E 19 24 10 13 1027.0 1027.0 0.0
25/04:30pm 13.8 10.4 10.4 80 1.8 E 19 22 10 12 1027.0 1027.0 0.0
25/04:00pm 14.3 10.7 10.5 78 2.0 E 20 28 11 15 1027.1 1027.1 0.0
25/03:30pm 14.6 11.0 10.4 76 2.2 E 20 28 11 15 1027.1 1027.1 0.0
25/03:00pm 15.0 10.9 10.2 73 2.5 ENE 22 28 12 15 1027.0 1027.0 0.0
25/02:30pm 15.4 11.6 11.0 75 2.3 ENE 22 30 12 16 1027.0 1027.0 0.0
25/02:00pm 14.7 11.0 10.3 75 2.3 ENE 20 30 11 16 1027.1 1027.1 0.0
25/01:30pm 15.1 11.7 11.1 77 2.1 ENE 20 28 11 15 1027.2 1027.2 0.0
25/01:00pm 14.5 10.9 10.7 78 2.0 NE 20 28 11 15 1027.3 1027.3 0.0
25/12:30pm 14.7 10.8 10.9 78 2.0 ENE 22 33 12 18 1027.6 1027.6 0.0
25/12:00pm 15.5 12.2 11.5 77 2.1 ENE 20 24 11 13 1028.0 1028.0 0.0
25/11:30am 14.6 11.0 11.9 84 1.5 E 22 28 12 15 1028.7 1028.7 0.0
25/11:00am 14.5 10.9 12.0 85 1.3 E 22 33 12 18 1028.9 1028.9 0.0
25/10:30am 14.1 11.5 12.1 88 1.1 ENE 17 22 9 12 1029.0 1029.0 0.0
25/10:00am 13.0 10.7 11.7 92 0.7 ENE 15 20 8 11 1029.1 1029.1 0.0
25/09:37am 13.1 11.4 12.3 95 0.4 ENE 13 17 7 9 1029.0 1029.0 0.0
25/09:33am 12.9 11.1 12.1 95 0.4 ENE 13 17 7 9 1029.0 1029.0 0.0
25/09:30am 13.3 11.7 12.7 96 0.3 NE 13 17 7 9 1029.0 1029.0 0.0
25/09:11am 12.4 11.6 11.8 96 0.3 NNE 7 9 4 5 1029.2 1029.2 0.0
25/09:08am 12.4 11.6 11.8 96 0.3 NNE 7 9 4 5 1029.2 1029.2 0.0
25/09:00am 12.4 11.6 11.8 96 0.3 NE 7 9 4 5 1029.2 1029.2 1.0
25/08:30am 12.3 11.5 11.7 96 0.3 NE 7 9 4 5 1028.9 1028.9 1.0
25/08:00am 11.6 9.8 11.0 96 0.3 E 11 11 6 6 1028.6 1028.6 1.0
25/07:30am 11.6 9.1 11.0 96 0.3 E 15 19 8 10 1028.5 1028.5 1.0
25/07:28am 11.7 9.2 11.1 96 0.3 E 15 20 8 11 1028.4 1028.4 1.0
25/07:13am 11.2 8.9 10.6 96 0.3 E 13 17 7 9 1028.4 1028.4 0.8
25/07:00am 11.1 9.2 10.5 96 0.3 E 11 13 6 7 1028.3 1028.3 0.8
25/06:40am 11.7 10.7 11.1 96 0.3 ENE 7 13 4 7 1028.2 1028.2 0.8
25/06:30am 11.5 10.5 10.9 96 0.3 NE 7 9 4 5 1028.2 1028.2 0.8
25/06:19am 11.4 10.0 10.8 96 0.3 NE 9 15 5 8 1028.2 1028.2 0.6
25/06:00am 11.3 9.1 10.8 97 0.3 E 13 17 7 9 1028.1 1028.1 0.6
25/05:30am 10.9 9.4 10.4 97 0.3 ESE 9 13 5 7 1027.9 1027.9 0.6
25/05:00am 9.9 8.7 9.4 97 0.2 ENE 6 7 3 4 1027.9 1027.9 0.6
25/04:58am 9.8 8.5 9.3 97 0.2 ENE 6 7 3 4 1027.9 1027.9 0.6
25/04:41am 10.3 8.2 9.8 97 0.3 E 11 15 6 8 1027.7 1027.7 0.4
25/04:30am 9.3 7.3 8.8 97 0.2 E 9 11 5 6 1027.6 1027.6 0.2
25/04:00am 10.6 8.6 10.1 97 0.3 ESE 11 13 6 7 1027.8 1027.8 0.2
25/03:30am 9.6 7.7 9.1 97 0.2 ESE 9 9 5 5 1028.0 1028.0 0.2
25/03:11am 8.9 7.2 8.5 97 0.2 ESE 7 9 4 5 1028.1 1028.1 0.2
25/03:00am 8.6 6.9 8.2 97 0.2 ESE 7 9 4 5 1028.2 1028.2 0.2
25/02:32am 7.0 4.8 6.4 96 0.3 ESE 7 9 4 5 1028.5 1028.5 0.2
25/02:30am 6.9 4.9 6.3 96 0.3 ESE 6 7 3 4 1028.5 1028.5 0.2
25/02:00am 6.4 4.3 5.8 96 0.3 ESE 6 7 3 4 1028.5 1028.5 0.2
25/01:36am 5.7 3.5 5.1 96 0.3 ESE 6 7 3 4 1028.4 1028.4 0.2
25/01:30am 6.3 4.6 5.7 96 0.3 ESE 4 7 2 4 1028.4 1028.4 0.2
25/01:23am 6.8 5.2 6.4 97 0.2 ESE 4 7 2 4 1028.3 1028.3 0.2
25/01:13am 6.4 5.1 5.8 96 0.3 ESE 2 6 1 3 1028.3 1028.3 0.2
25/01:00am 6.2 5.2 5.6 96 0.3 CALM 0 0 0 0 1028.4 1028.4 0.2
25/12:57am 6.0 5.0 5.4 96 0.3 CALM 0 0 0 0 1028.5 1028.5 0.2
25/12:30am 6.5 4.4 5.9 96 0.3 ESE 6 6 3 3 1028.5 1028.5 0.2
25/12:21am 7.0 5.0 6.4 96 0.3 ESE 6 6 3 3 1028.6 1028.6 0.2
25/12:00am 7.0 5.0 6.4 96 0.3 ESE 6 7 3 4 1028.5 1028.5 0.2
 
Date/Time
EST
Temp
°C
App
Temp
°C
Dew
Point
°C
Rel
Hum
%
Delta-T
°C
Wind Press
QNH
hPa
Press
MSL
hPa
Rain since
9am
mm
Dir  Spd
km/h
Gust
km/h
Spd
kts
Gust
kts
24/11:59pm 6.9 4.9 6.3 96 0.3 ESE 6 7 3 4 1028.6 1028.6 0.2
24/11:30pm 6.0 3.8 5.4 96 0.3 ESE 6 7 3 4 1028.5 1028.5 0.0
24/11:28pm 5.9 3.7 5.3 96 0.3 ESE 6 7 3 4 1028.5 1028.5 0.0
24/11:27pm 5.8 3.6 5.2 96 0.3 ESE 6 7 3 4 1028.5 1028.5 0.0
24/11:13pm 5.6 3.3 5.0 96 0.3 SE 6 7 3 4 1028.6 1028.6 0.0
24/11:08pm 5.5 3.0 4.9 96 0.3 SE 7 9 4 5 1028.6 1028.6 0.0
24/11:02pm 5.5 3.0 4.8 95 0.3 SE 7 9 4 5 1028.6 1028.6 0.0
24/11:00pm 5.5 3.0 4.8 95 0.3 SE 7 9 4 5 1028.6 1028.6 0.0
24/10:52pm 6.2 3.9 5.5 95 0.3 SE 7 7 4 4 1028.6 1028.6 0.0
24/10:49pm 6.8 4.6 6.2 96 0.3 SE 7 9 4 5 1028.6 1028.6 0.0
24/10:36pm 7.1 5.0 6.5 96 0.3 ESE 7 9 4 5 1028.6 1028.6 0.0
24/10:30pm 6.6 4.5 6.0 96 0.3 ESE 6 7 3 4 1028.6 1028.6 0.0
24/10:14pm 6.3 4.9 5.7 96 0.3 ESE 2 7 1 4 1028.8 1028.8 0.0
24/10:00pm 5.9 3.5 5.3 96 0.3 ESE 7 9 4 5 1028.8 1028.8 0.0
24/09:57pm 5.8 3.4 5.1 95 0.3 ESE 7 9 4 5 1028.8 1028.8 0.0
24/09:38pm 6.0 3.2 5.3 95 0.3 SE 9 13 5 7 1028.8 1028.8 0.0
24/09:30pm 6.8 4.6 6.1 95 0.3 ESE 7 9 4 5 1028.7 1028.7 0.0
24/09:26pm 7.0 4.8 6.4 96 0.3 ESE 7 9 4 5 1028.8 1028.8 0.0
24/09:12pm 6.4 3.7 5.7 95 0.3 SE 9 9 5 5 1028.7 1028.7 0.0
24/09:02pm 5.8 3.0 5.1 95 0.3 ESE 9 9 5 5 1028.7 1028.7 0.0
24/09:00pm 5.8 3.4 5.1 95 0.3 ESE 7 9 4 5 1028.7 1028.7 0.0
24/08:36pm 7.2 6.0 6.5 95 0.3 ESE 2 7 1 4 1028.7 1028.7 0.0
24/08:30pm 7.1 6.3 6.4 95 0.3 CALM 0 0 0 0 1028.7 1028.7 0.0
24/08:14pm 7.5 6.0 6.6 94 0.4 ESE 4 7 2 4 1028.7 1028.7 0.0
24/08:11pm 7.7 5.9 7.0 95 0.3 ESE 6 7 3 4 1028.7 1028.7 0.0
24/08:00pm 8.1 6.1 7.3 95 0.4 ESE 7 7 4 4 1028.7 1028.7 0.0
24/07:30pm 8.6 8.1 7.7 94 0.4 CALM 0 0 0 0 1028.6 1028.6 0.0
24/07:18pm 9.2 8.8 8.3 94 0.4 CALM 0 0 0 0 1028.4 1028.4 0.0
24/07:00pm 9.9 9.6 8.8 93 0.5 CALM 0 0 0 0 1028.4 1028.4 0.0
24/06:30pm 9.8 9.5 8.6 92 0.6 CALM 0 0 0 0 1028.4 1028.4 0.0
24/06:00pm 10.4 10.2 9.2 92 0.6 CALM 0 0 0 0 1028.2 1028.2 0.0
24/05:58pm 10.2 10.0 9.0 92 0.6 CALM 0 0 0 0 1028.2 1028.2 0.0
24/05:30pm 10.7 8.1 9.3 91 0.7 SSW 13 15 7 8 1027.9 1027.9 0.0
24/05:00pm 11.9 9.8 9.8 87 1.1 S 11 17 6 9 1028.2 1028.2 0.0
24/04:30pm 12.2 10.0 9.2 82 1.5 S 11 15 6 8 1028.1 1028.1 0.0
24/04:00pm 12.5 10.6 9.1 80 1.7 SSE 9 13 5 7 1028.0 1028.0 0.0
24/03:30pm 12.6 9.9 9.1 79 1.8 SSE 13 19 7 10 1028.0 1028.0 0.0
24/03:00pm 13.3 10.2 9.0 75 2.2 SSE 15 22 8 12 1028.0 1028.0 0.0
24/02:30pm 13.0 9.1 8.7 75 2.2 SSE 19 26 10 14 1028.0 1028.0 0.0
24/02:00pm 13.9 10.3 8.3 69 2.8 SSE 17 22 9 12 1027.9 1027.9 0.0
24/01:30pm 13.4 9.7 8.0 70 2.7 SSE 17 24 9 13 1028.4 1028.4 0.0
24/01:00pm 13.6 9.9 8.0 69 2.8 SSE 17 24 9 13 1028.5 1028.5 0.0
24/12:30pm 13.3 9.3 8.2 71 2.5 SSE 19 24 10 13 1028.8 1028.8 0.0
24/12:00pm 13.6 10.0 8.2 70 2.7 SSE 17 26 9 14 1029.2 1029.2 0.0
24/11:30am 12.9 9.1 7.6 70 2.6 SSE 17 26 9 14 1029.5 1029.5 0.0
24/11:00am 13.8 10.2 8.2 69 2.8 SSE 17 26 9 14 1029.4 1029.4 0.0
24/10:30am 13.4 9.5 8.7 73 2.4 SSE 19 26 10 14 1029.3 1029.3 0.0
24/10:00am 12.1 8.7 7.8 75 2.1 SSE 15 20 8 11 1029.3 1029.3 0.0
24/09:30am 11.8 9.1 7.5 75 2.1 S 11 17 6 9 1029.4 1029.4 0.0
24/09:00am 11.3 8.7 7.8 79 1.7 SSE 11 15 6 8 1029.4 1029.4 2.6
24/08:30am 10.1 7.8 7.3 83 1.3 SSE 9 13 5 7 1029.3 1029.3 2.6
24/08:00am 9.5 5.6 6.9 84 1.2 SSE 17 20 9 11 1029.0 1029.0 2.6
24/07:30am 8.7 5.9 6.8 88 0.9 S 11 15 6 8 1028.8 1028.8 2.6
24/07:00am 7.8 5.4 7.1 95 0.3 S 9 13 5 7 1028.9 1028.9 2.6
24/06:30am 6.2 4.0 5.2 93 0.4 S 6 11 3 6 1028.6 1028.6 2.6
24/06:00am 5.9 3.9 4.5 91 0.6 SE 4 7 2 4 1028.5 1028.5 2.6
24/05:30am 7.9 6.0 6.7 92 0.6 SSE 6 9 3 5 1028.3 1028.3 2.6
24/05:00am 8.0 5.8 6.3 89 0.8 SSE 7 9 4 5 1028.1 1028.1 2.6
24/04:30am 9.3 7.3 7.3 87 0.9 SSE 7 11 4 6 1027.9 1027.9 2.6
24/04:00am 9.7 6.7 7.6 87 1.0 SSE 13 15 7 8 1027.8 1027.8 2.6
24/03:30am 10.1 7.6 8.0 87 1.0 SSE 11 15 6 8 1027.8 1027.8 2.6
24/03:00am 10.4 7.9 8.3 87 1.0 SSE 11 15 6 8 1028.0 1028.0 2.6
24/02:30am 10.7 7.9 8.6 87 1.0 SSE 13 19 7 10 1027.9 1027.9 2.6
24/02:00am 10.6 7.8 8.7 88 0.9 SSE 13 17 7 9 1027.9 1027.9 2.6
24/01:30am 11.0 8.3 8.9 87 1.0 SSE 13 20 7 11 1027.8 1027.8 2.6
24/01:00am 11.5 8.6 9.8 89 0.9 SSE 15 20 8 11 1027.7 1027.7 2.6
24/12:30am 11.6 8.9 10.3 92 0.7 S 15 22 8 12 1027.6 1027.6 2.6
24/12:09am 11.7 8.3 10.6 93 0.6 SSE 19 24 10 13 1027.5 1027.5 2.6
24/12:00am 11.7 8.3 10.6 93 0.6 SSE 19 28 10 15 1027.5 1027.5 2.6
 
Date/Time
EST
Temp
°C
App
Temp
°C
Dew
Point
°C
Rel
Hum
%
Delta-T
°C
Wind Press
QNH
hPa
Press
MSL
hPa
Rain since
9am
mm
Dir  Spd
km/h
Gust
km/h
Spd
kts
Gust
kts
23/11:36pm 12.1 8.9 11.2 94 0.5 SSE 19 30 10 16 1027.4 1027.4 2.6
23/11:30pm 12.3 9.2 11.5 95 0.4 S 19 28 10 15 1027.3 1027.3 2.6
23/11:06pm 12.9 11.4 12.0 94 0.5 WSW 11 13 6 7 1027.0 1027.0 2.4
23/11:01pm 12.8 11.3 11.9 94 0.5 WSW 11 13 6 7 1027.0 1027.0 2.4
23/11:00pm 12.8 11.3 11.9 94 0.5 WSW 11 13 6 7 1027.0 1027.0 2.4
23/10:40pm 12.7 10.8 11.8 94 0.5 WSW 13 17 7 9 1027.1 1027.1 2.4
23/10:30pm 12.7 10.8 11.8 94 0.5 WSW 13 19 7 10 1027.0 1027.0 2.4
23/10:00pm 13.4 9.3 11.5 88 1.0 W 24 33 13 18 1027.1 1027.1 0.2
23/09:59pm 13.6 9.6 11.7 88 1.0 W 24 33 13 18 1027.0 1027.0 0.2
23/09:30pm 14.2 10.1 11.4 83 1.5 WNW 24 30 13 16 1026.8 1026.8 0.0

Other formats

Comma delimited format used in spreadsheet applications
http://www.bom.gov.au/fwo/IDT60801/IDT60801.94850.axf

JavaScript Object Notation format (JSON) in row-major order
http://www.bom.gov.au/fwo/IDT60801/IDT60801.94850.json

Data quality

Most of these data are generated automatically and are frequently updated. Quality checks on data are not normally performed. It is possible for incorrect values to appear. Refer to information at About Latest Weather Observations and please check the disclaimer before using these data.